Time;durP1;ratioP1;P1;durP2;ratioP2;P2;SDS_P1;SDS_P2;PMS_P1;PMS_P2;Temp;Humidity;BMP_temperature;BMP_pressure;BME280_temperature;BME280_humidity;BME280_pressure;Samples;Min_cycle;Max_cycle;Signal;HPM_P1;HPM_P2
2022/12/07 00:02:25;;;;;;;;;74.75;56.00;;;;;3.18;76.77;101881.84;5054424;28;45483;-88
2022/12/07 00:04:51;;;;;;;;;68.50;55.00;;;;;3.12;76.90;101867.66;5065954;28;47302;-89
2022/12/07 00:07:16;;;;;;;;;67.00;55.25;;;;;3.08;76.98;101870.13;5081539;28;45536;-90
2022/12/07 00:09:54;;;;;;;;;68.75;54.50;;;;;3.25;76.72;101891.66;5058340;28;45372;-89
2022/12/07 00:12:20;;;;;;;;;76.00;57.75;;;;;3.05;76.99;101866.50;5058093;28;45702;-88
2022/12/07 00:14:49;;;;;;;;;71.25;56.50;;;;;3.09;76.96;101873.59;5080346;28;47048;-88
2022/12/07 00:17:15;;;;;;;;;77.75;58.50;;;;;3.20;77.08;101893.19;5071613;28;45460;-90
2022/12/07 00:19:43;;;;;;;;;70.75;55.75;;;;;3.10;77.35;101872.75;5076309;28;45386;-90
2022/12/07 00:22:14;;;;;;;;;69.75;56.00;;;;;3.09;77.24;101877.09;5067569;28;45571;-88
2022/12/07 00:24:39;;;;;;;;;67.25;52.75;;;;;3.23;77.17;101888.09;5057082;28;47437;-88
2022/12/07 00:27:08;;;;;;;;;68.25;52.75;;;;;3.03;77.08;101847.31;5047577;28;45461;-90
2022/12/07 00:29:33;;;;;;;;;69.25;56.50;;;;;3.19;77.04;101881.00;5087323;27;45472;-91
2022/12/07 00:32:15;;;;;;;;;67.75;54.75;;;;;3.17;76.76;101876.53;5045335;28;45582;-89
2022/12/07 00:35:05;;;;;;;;;67.75;53.00;;;;;3.19;77.23;101874.91;5041020;28;47021;-86
2022/12/07 00:37:39;;;;;;;;;57.75;47.50;;;;;3.22;76.76;101888.06;5041093;28;45603;-89
2022/12/07 00:40:06;;;;;;;;;61.25;50.75;;;;;3.15;76.88;101875.59;5045606;28;45316;-89
2022/12/07 00:42:31;;;;;;;;;65.75;53.00;;;;;2.99;76.48;101854.06;5043270;28;45562;-88
2022/12/07 00:44:59;;;;;;;;;59.00;47.75;;;;;3.03;76.91;101857.72;5049668;28;47664;-88
2022/12/07 00:47:27;;;;;;;;;60.75;49.75;;;;;3.07;76.76;101872.63;5049509;28;45541;-88
2022/12/07 00:49:56;;;;;;;;;59.00;49.75;;;;;3.00;77.10;101861.06;5080575;28;45434;-88
2022/12/07 00:52:21;;;;;;;;;63.75;46.75;;;;;2.97;77.01;101847.06;5049694;28;45527;-88
2022/12/07 00:54:47;;;;;;;;;57.75;46.50;;;;;3.19;77.15;101885.31;5090558;27;46812;-89
2022/12/07 00:57:23;;;;;;;;;66.50;52.25;;;;;3.20;76.89;101895.78;5044361;28;45343;-89
2022/12/07 00:59:49;;;;;;;;;63.75;51.00;;;;;3.14;76.35;101876.41;5064222;27;44878;-88
2022/12/07 01:02:17;;;;;;;;;65.50;52.00;;;;;3.07;76.74;101867.44;5044736;28;45326;-88
2022/12/07 01:04:43;;;;;;;;;64.25;51.75;;;;;3.06;76.49;101866.53;5062514;28;47303;-88
2022/12/07 01:07:09;;;;;;;;;68.00;56.00;;;;;3.10;76.88;101877.97;5051276;28;45226;-87
2022/12/07 01:09:34;;;;;;;;;66.25;52.00;;;;;3.06;76.23;101876.94;5063119;28;45534;-87
2022/12/07 01:12:00;;;;;;;;;58.25;48.00;;;;;3.00;76.62;101865.41;5050508;28;45276;-86
2022/12/07 01:14:25;;;;;;;;;64.50;49.75;;;;;2.89;76.38;101846.72;5051679;28;46879;-88
2022/12/07 01:16:51;;;;;;;;;63.75;47.75;;;;;2.88;76.35;101858.78;5079937;28;45295;-86
2022/12/07 01:19:16;;;;;;;;;50.25;39.25;;;;;2.87;76.61;101853.53;5051622;28;45273;-88
2022/12/07 01:21:41;;;;;;;;;62.50;50.50;;;;;2.93;76.50;101868.53;5064712;28;45207;-87
2022/12/07 01:24:19;;;;;;;;;55.00;44.25;;;;;2.89;76.81;101870.13;5051008;28;46903;-87
2022/12/07 01:26:44;;;;;;;;;44.50;39.25;;;;;2.73;76.63;101857.22;5064482;28;45208;-88
2022/12/07 01:29:12;;;;;;;;;54.00;41.25;;;;;2.71;76.24;101864.94;5071189;28;44725;-90
2022/12/07 01:31:45;;;;;;;;;50.25;40.25;;;;;2.55;77.03;101852.06;5044409;28;45528;-88
2022/12/07 01:34:10;;;;;;;;;57.75;43.00;;;;;2.60;77.15;101851.44;5031506;28;47431;-87
2022/12/07 01:36:53;;;;;;;;;;;;;;;;;;;;;
2022/12/07 01:39:19;;;;;;;;;61.50;45.75;;;;;2.50;77.24;101828.44;5023515;28;67893;-88
2022/12/07 01:41:56;;;;;;;;;56.75;42.00;;;;;2.47;77.76;101835.22;5022324;28;45256;-91
2022/12/07 01:44:31;;;;;;;;;56.50;42.75;;;;;2.42;77.54;101822.88;5024583;28;47006;-89
2022/12/07 01:47:05;;;;;;;;;50.50;40.00;;;;;2.39;76.90;101822.75;5034875;28;44789;-88
2022/12/07 01:49:33;;;;;;;;;49.50;37.50;;;;;2.55;77.46;101855.53;5037722;28;45356;-90
2022/12/07 01:52:33;;;;;;;;;51.00;40.75;;;;;2.56;77.43;101859.91;5032478;28;45398;-88
2022/12/07 01:55:17;;;;;;;;;42.75;38.50;;;;;2.36;77.35;101817.41;5043539;28;46320;-87
2022/12/07 01:57:52;;;;;;;;;55.00;44.00;;;;;2.55;77.54;101832.16;5043367;28;45249;-88
2022/12/07 02:00:30;;;;;;;;;50.00;39.00;;;;;2.58;77.76;101834.88;5033192;28;45316;-88
2022/12/07 02:03:07;;;;;;;;;51.25;42.50;;;;;2.51;77.81;101827.63;5018157;28;45535;-88
2022/12/07 02:05:51;;;;;;;;;57.50;45.00;;;;;2.62;77.85;101849.81;5029957;28;45226;-87
2022/12/07 02:08:27;;;;;;;;;40.75;37.00;;;;;2.65;77.50;101849.06;5030592;28;45465;-90
2022/12/07 02:10:54;;;;;;;;;44.50;38.75;;;;;2.70;77.83;101844.06;5038328;28;45241;-88
2022/12/07 02:13:34;;;;;;;;;49.50;40.00;;;;;2.72;77.92;101837.22;5024611;28;45276;-89
2022/12/07 02:16:36;;;;;;;;;49.50;42.00;;;;;2.84;78.18;101848.22;5034010;28;47141;-90
2022/12/07 02:22:59;;;;;;;;;41.25;37.75;;;;;2.90;78.15;101855.38;5037862;28;44777;-90
2022/12/07 02:26:05;;;;;;;;;40.50;36.75;;;;;2.93;78.05;101852.94;5023749;28;45598;-87
2022/12/07 02:29:01;;;;;;;;;47.75;41.25;;;;;2.83;78.10;101826.53;5035677;28;46708;-90
2022/12/07 02:31:30;;;;;;;;;43.50;39.75;;;;;2.93;77.74;101842.53;5039460;28;44777;-87
2022/12/07 02:34:10;;;;;;;;;47.25;40.00;;;;;2.79;77.77;101806.38;5031470;28;45368;-87
2022/12/07 02:36:46;;;;;;;;;46.50;39.00;;;;;2.90;77.69;101832.88;5036356;28;45560;-86
2022/12/07 02:39:22;;;;;;;;;52.75;41.00;;;;;2.92;77.57;101836.44;5021977;28;46831;-89
2022/12/07 02:44:48;;;;;;;;;43.50;38.75;;;;;3.02;78.09;101853.31;5026484;28;45220;-90
2022/12/07 02:47:31;;;;;;;;;54.50;42.50;;;;;2.90;77.89;101818.97;5042567;28;45580;-87
2022/12/07 02:50:08;;;;;;;;;52.50;40.00;;;;;2.87;77.51;101815.41;5036370;28;47526;-87
2022/12/07 02:52:43;;;;;;;;;52.75;42.50;;;;;3.01;77.87;101836.84;5025208;28;45244;-89
2022/12/07 02:55:13;;;;;;;;;39.00;35.00;;;;;3.01;77.48;101834.22;5041688;28;45501;-90
2022/12/07 02:58:10;;;;;;;;;49.50;39.25;;;;;3.08;77.58;101843.22;5043720;28;45430;-89
2022/12/07 03:04:09;;;;;;;;;37.50;34.50;;;;;3.04;77.85;101843.88;5034594;28;45293;-89
2022/12/07 03:07:06;;;;;;;;;;;;;;;;;;;;;
2022/12/07 03:09:55;;;;;;;;;38.50;31.00;;;;;2.89;77.78;101825.91;5012846;28;72850;-88
2022/12/07 03:12:48;;;;;;;;;47.00;35.25;;;;;2.91;77.58;101838.94;5036495;28;45513;-89
2022/12/07 03:15:35;;;;;;;;;;;;;;;;;;;;;
2022/12/07 03:18:13;;;;;;;;;41.00;33.50;;;;;2.75;78.25;101827.84;5026778;28;68004;-87
2022/12/07 03:20:45;;;;;;;;;37.75;33.75;;;;;2.82;78.32;101844.63;5030536;28;45495;-86
2022/12/07 03:23:25;;;;;;;;;41.25;33.75;;;;;2.57;78.29;101796.72;5032270;28;47007;-89
2022/12/07 03:25:58;;;;;;;;;32.50;28.25;;;;;2.73;77.88;101811.31;5034009;28;45252;-89
2022/12/07 03:28:31;;;;;;;;;30.00;27.00;;;;;2.61;78.59;101797.75;5039140;28;45519;-89
2022/12/07 03:31:10;;;;;;;;;38.75;32.75;;;;;2.63;78.10;101798.72;5051389;27;45859;-90
2022/12/07 03:33:42;;;;;;;;;45.75;34.75;;;;;2.66;77.82;101809.25;5042568;28;47107;-89
2022/12/07 03:36:17;;;;;;;;;43.00;34.00;;;;;2.60;78.12;101788.19;5023875;28;45438;-88
2022/12/07 03:38:49;;;;;;;;;31.00;24.75;;;;;2.72;78.01;101816.44;5027682;28;45443;-89
2022/12/07 03:41:22;;;;;;;;;39.50;33.75;;;;;2.69;78.49;101811.09;5038224;28;45212;-89
2022/12/07 03:43:48;;;;;;;;;34.25;32.75;;;;;2.52;78.24;101789.53;5043988;28;47321;-89
2022/12/07 03:46:26;;;;;;;;;33.00;29.50;;;;;2.61;78.56;101803.84;5039018;28;45271;-88
2022/12/07 03:49:23;;;;;;;;;35.75;29.50;;;;;2.57;78.69;101806.25;5028609;28;45537;-88
2022/12/07 03:52:08;;;;;;;;;35.25;30.50;;;;;2.50;78.81;101799.84;5032977;28;45458;-88
2022/12/07 03:54:39;;;;;;;;;33.50;28.50;;;;;2.50;78.90;101807.66;5046207;28;47975;-88
2022/12/07 03:57:06;;;;;;;;;44.50;34.75;;;;;2.38;79.33;101782.00;5044134;28;45246;-89
2022/12/07 03:59:33;;;;;;;;;41.25;35.25;;;;;2.40;78.85;101789.84;5056408;28;45403;-89
2022/12/07 04:02:04;;;;;;;;;36.50;33.00;;;;;2.46;78.70;101797.94;5052440;28;45381;-88
2022/12/07 04:04:29;;;;;;;;;44.00;36.75;;;;;2.42;79.32;101783.03;5040595;28;46465;-89
2022/12/07 04:06:55;;;;;;;;;36.00;31.50;;;;;2.55;79.43;101813.97;5040538;28;45256;-90
2022/12/07 04:09:20;;;;;;;;;39.00;35.00;;;;;2.55;79.64;101806.16;5033372;28;45333;-90
2022/12/07 04:11:46;;;;;;;;;44.50;36.25;;;;;2.64;79.36;101819.56;5044766;28;45451;-90
2022/12/07 04:14:20;;;;;;;;;39.75;34.00;;;;;2.64;79.65;101822.16;5036886;28;47113;-90
2022/12/07 04:16:50;;;;;;;;;40.75;30.25;;;;;2.60;79.20;101804.66;5035962;28;45418;-89
2022/12/07 04:19:18;;;;;;;;;38.00;29.25;;;;;2.64;79.52;101808.28;5045613;28;45240;-90
2022/12/07 04:21:44;;;;;;;;;35.75;33.50;;;;;2.63;79.51;101812.59;5031349;28;45550;-89
2022/12/07 04:24:11;;;;;;;;;39.50;31.50;;;;;2.63;79.07;101803.91;5036807;28;47872;-90
2022/12/07 04:26:44;;;;;;;;;36.50;28.75;;;;;2.47;79.13;101789.31;5027314;28;45531;-89
2022/12/07 04:29:25;;;;;;;;;36.50;29.75;;;;;2.54;78.72;101796.59;5036024;28;45266;-89
2022/12/07 04:32:01;;;;;;;;;33.50;29.75;;;;;2.53;78.98;101786.13;5043449;28;45793;-90
2022/12/07 04:34:40;;;;;;;;;;;;;;;;;;;;;
2022/12/07 04:37:19;;;;;;;;;;;;;;;;;;;;;
2022/12/07 04:39:54;;;;;;;;;40.75;25.25;;;;;2.64;78.44;101803.97;5026716;28;67331;-90
2022/12/07 04:42:28;;;;;;;;;35.00;32.25;;;;;2.68;78.47;101804.13;5037707;28;44798;-90
2022/12/07 04:44:57;;;;;;;;;29.50;25.00;;;;;2.68;78.72;101817.13;5031651;28;46791;-88
2022/12/07 04:47:29;;;;;;;;;36.75;28.75;;;;;2.45;78.54;101771.88;5034209;28;45355;-90
2022/12/07 04:49:56;;;;;;;;;39.25;30.25;;;;;2.58;78.71;101800.22;5062982;28;45457;-91
2022/12/07 04:52:22;;;;;;;;;32.75;28.00;;;;;2.51;78.82;101778.22;5045176;28;45246;-88
2022/12/07 04:54:51;;;;;;;;;40.25;30.50;;;;;2.48;78.85;101774.63;5025566;28;46102;-88
2022/12/07 04:57:31;;;;;;;;;38.50;30.00;;;;;2.52;79.00;101779.16;5026363;28;45472;-90
2022/12/07 05:00:02;;;;;;;;;36.00;30.50;;;;;2.55;79.18;101787.09;5034902;28;45268;-89
2022/12/07 05:02:31;;;;;;;;;30.75;25.00;;;;;2.38;78.81;101773.31;5044071;28;44947;-90
2022/12/07 05:04:58;;;;;;;;;31.75;27.25;;;;;2.27;78.73;101756.31;5035386;28;46609;-89
2022/12/07 05:07:27;;;;;;;;;34.00;26.50;;;;;2.34;78.58;101766.19;5030480;28;45166;-89
2022/12/07 05:09:56;;;;;;;;;23.25;20.50;;;;;2.31;78.89;101764.34;5069903;28;45386;-88
2022/12/07 05:12:25;;;;;;;;;30.75;26.50;;;;;2.34;78.77;101782.66;5042015;28;44963;-89
2022/12/07 05:15:13;;;;;;;;;30.75;25.50;;;;;2.33;79.03;101782.63;5026364;28;45728;-89
2022/12/07 05:17:55;;;;;;;;;33.25;25.75;;;;;2.18;78.39;101768.06;5025651;28;44765;-88
2022/12/07 05:20:23;;;;;;;;;30.25;29.25;;;;;2.45;78.60;101800.47;5041984;28;45491;-89
2022/12/07 05:22:58;;;;;;;;;33.25;26.50;;;;;2.32;78.65;101767.81;5045132;28;45505;-89
2022/12/07 05:25:36;;;;;;;;;42.75;32.00;;;;;2.58;79.02;101814.09;5023318;28;46799;-88
2022/12/07 05:28:21;;;;;;;;;34.00;29.00;;;;;2.42;78.98;101781.31;5053518;28;44809;-89
2022/12/07 05:30:52;;;;;;;;;31.50;28.50;;;;;2.43;78.79;101779.59;5035508;28;45531;-90
2022/12/07 05:33:36;;;;;;;;;35.25;28.75;;;;;2.58;78.80;101800.22;5034115;28;45518;-88
2022/12/07 05:36:11;;;;;;;;;29.25;29.25;;;;;2.55;78.41;101787.97;5064110;28;47135;-91
2022/12/07 05:38:39;;;;;;;;;32.25;25.00;;;;;2.41;78.36;101766.56;5026122;28;45406;-89
2022/12/07 05:41:06;;;;;;;;;37.00;32.00;;;;;2.51;78.54;101785.16;5058245;28;45489;-89
2022/12/07 05:43:33;;;;;;;;;28.50;27.50;;;;;2.49;78.56;101787.69;5019312;28;45242;-89
2022/12/07 05:46:10;;;;;;;;;39.75;29.75;;;;;2.53;78.40;101783.50;5025528;28;47529;-89
2022/12/07 05:48:42;;;;;;;;;36.50;30.75;;;;;2.70;78.01;101811.19;5023206;28;45558;-89
2022/12/07 05:51:08;;;;;;;;;31.25;29.00;;;;;2.61;78.59;101783.03;5055717;28;45345;-88
2022/12/07 05:53:38;;;;;;;;;40.50;31.25;;;;;2.62;78.25;101786.56;5044115;28;45448;-90
2022/12/07 05:56:04;;;;;;;;;30.50;26.25;;;;;2.58;78.62;101782.91;5061017;28;45637;-89
2022/12/07 06:01:13;;;;;;;;;34.75;29.00;;;;;2.60;78.33;101772.59;5043925;28;45442;-89
2022/12/07 06:03:39;;;;;;;;;30.25;27.25;;;;;2.79;78.43;101798.59;5042445;28;45518;-90
2022/12/07 06:06:05;;;;;;;;;26.25;24.50;;;;;2.82;78.07;101803.03;5044443;28;45545;-90
2022/12/07 06:08:30;;;;;;;;;31.00;28.50;;;;;2.73;78.44;101785.31;5030528;28;45474;-90
2022/12/07 06:13:49;;;;;;;;;26.50;25.50;;;;;2.87;78.08;101785.94;5044384;28;45498;-90
2022/12/07 06:16:15;;;;;;;;;27.00;22.50;;;;;2.89;78.52;101781.69;5047003;28;45441;-89
2022/12/07 06:18:57;;;;;;;;;36.25;28.25;;;;;2.99;77.97;101793.38;5047642;28;45293;-89
2022/12/07 06:21:25;;;;;;;;;26.75;23.50;;;;;2.98;78.25;101786.41;5047046;28;45426;-88
2022/12/07 06:24:02;;;;;;;;;32.50;29.25;;;;;2.96;77.71;101796.72;5044241;28;45451;-88
2022/12/07 06:26:50;;;;;;;;;26.75;25.50;;;;;2.71;78.20;101753.16;5046381;28;46702;-89
2022/12/07 06:29:34;;;;;;;;;28.25;25.00;;;;;2.85;77.67;101777.16;5037015;28;44622;-90
2022/12/07 06:32:18;;;;;;;;;25.00;23.50;;;;;2.99;78.30;101795.97;5046493;28;45245;-90
2022/12/07 06:34:47;;;;;;;;;35.75;29.00;;;;;2.92;77.63;101786.13;5031219;28;45173;-89
2022/12/07 06:37:26;;;;;;;;;37.25;34.50;;;;;3.02;78.03;101796.09;5044610;28;46982;-89
2022/12/07 06:39:52;;;;;;;;;38.50;32.00;;;;;2.95;78.11;101786.28;5024402;28;45443;-87
2022/12/07 06:42:18;;;;;;;;;34.75;30.00;;;;;2.99;77.69;101788.16;5026896;28;45236;-88
2022/12/07 06:45:00;;;;;;;;;35.75;30.75;;;;;2.87;77.98;101766.00;5030252;28;45410;-87
2022/12/07 06:47:45;;;;;;;;;36.75;33.25;;;;;2.98;78.17;101773.41;5036658;28;45709;-89
2022/12/07 06:50:20;;;;;;;;;36.25;30.25;;;;;3.11;78.02;101791.31;5033246;28;45329;-89
2022/12/07 06:52:46;;;;;;;;;39.75;31.25;;;;;3.09;77.85;101791.25;5030281;28;45298;-89
2022/12/07 06:55:16;;;;;;;;;32.50;28.75;;;;;3.05;77.89;101778.06;5044810;28;45721;-89
2022/12/07 06:58:02;;;;;;;;;26.00;24.25;;;;;3.13;77.73;101780.97;5042164;28;45544;-88
2022/12/07 07:00:47;;;;;;;;;31.25;28.75;;;;;3.12;78.21;101769.66;5036451;28;45429;-89
2022/12/07 07:03:13;;;;;;;;;39.25;33.50;;;;;3.12;77.69;101754.06;5047015;28;45345;-87
2022/12/07 07:08:36;;;;;;;;;38.00;31.50;;;;;3.14;77.45;101765.44;5037806;28;46565;-86
2022/12/07 07:11:02;;;;;;;;;40.75;31.75;;;;;3.24;77.66;101795.34;5022819;28;45271;-85
2022/12/07 07:13:28;;;;;;;;;34.25;30.25;;;;;3.13;77.36;101774.06;5035860;28;45345;-86
2022/12/07 07:16:02;;;;;;;;;33.50;26.25;;;;;3.08;77.63;101770.38;5021760;28;45584;-85
2022/12/07 07:18:31;;;;;;;;;26.75;25.00;;;;;3.07;77.40;101773.78;5022153;28;45698;-84
2022/12/07 07:21:06;;;;;;;;;36.00;32.00;;;;;3.27;77.35;101801.56;5021481;28;45450;-83
2022/12/07 07:23:32;;;;;;;;;34.75;30.25;;;;;3.11;77.74;101767.03;5024299;28;45417;-83
2022/12/07 07:26:01;;;;;;;;;29.50;26.75;;;;;3.21;77.54;101793.50;5022549;28;45454;-84
2022/12/07 07:28:34;;;;;;;;;38.75;33.00;;;;;3.25;77.50;101794.50;5023472;28;46423;-85
2022/12/07 07:31:05;;;;;;;;;30.50;29.50;;;;;3.21;77.32;101784.81;5029612;28;45358;-84
2022/12/07 07:33:42;;;;;;;;;31.25;30.50;;;;;3.29;77.67;101792.13;5041949;28;45420;-84
2022/12/07 07:36:09;;;;;;;;;32.75;30.75;;;;;3.37;77.43;101796.72;5042186;28;45386;-85
2022/12/07 07:38:35;;;;;;;;;32.75;30.25;;;;;3.23;77.40;101772.72;5047476;28;47256;-89
2022/12/07 07:41:00;;;;;;;;;38.25;33.50;;;;;3.37;77.33;101800.25;5048541;28;45357;-91
2022/12/07 07:43:26;;;;;;;;;45.50;35.00;;;;;3.19;77.40;101770.84;5061299;28;45256;-91
2022/12/07 07:45:56;;;;;;;;;41.00;34.75;;;;;3.35;77.72;101795.81;5044835;28;45224;-92
2022/12/07 07:48:25;;;;;;;;;44.75;34.25;;;;;3.31;77.43;101798.28;5060822;28;46913;-90
2022/12/07 07:50:59;;;;;;;;;33.00;27.75;;;;;3.26;77.11;101770.25;5044979;28;45255;-90
2022/12/07 07:53:29;;;;;;;;;47.00;39.50;;;;;3.33;77.91;101776.63;5054606;28;45462;-90
2022/12/07 07:55:55;;;;;;;;;37.00;32.25;;;;;3.49;77.92;101792.06;5062056;28;45279;-91
2022/12/07 07:58:26;;;;;;;;;40.75;35.25;;;;;3.52;77.27;101802.59;5043124;28;45465;-89
2022/12/07 08:00:53;;;;;;;;;40.50;34.50;;;;;3.50;77.36;101791.22;5055750;28;45284;-88
2022/12/07 08:03:24;;;;;;;;;39.25;33.75;;;;;3.54;77.16;101793.16;5040977;28;45364;-87
2022/12/07 08:05:53;;;;;;;;;39.00;31.50;;;;;3.62;77.13;101806.47;5061542;28;45521;-87
2022/12/07 08:08:21;;;;;;;;;36.00;33.75;;;;;3.65;77.02;101812.69;5041595;28;45475;-89
2022/12/07 08:10:47;;;;;;;;;37.75;31.00;;;;;3.57;77.41;101793.25;5045738;28;45355;-92
2022/12/07 08:13:15;;;;;;;;;29.25;24.25;;;;;3.61;77.02;101795.19;5053951;28;45940;-90
2022/12/07 08:15:43;;;;;;;;;29.50;29.00;;;;;3.55;76.86;101789.69;5045060;28;45441;-88
2022/12/07 08:18:09;;;;;;;;;36.25;31.00;;;;;3.61;76.82;101796.88;5041290;28;47114;-89
2022/12/07 08:20:36;;;;;;;;;40.75;31.00;;;;;3.56;76.92;101791.50;5075705;28;45264;-91
2022/12/07 08:23:02;;;;;;;;;43.50;38.50;;;;;3.80;77.05;101825.47;5078027;28;45442;-89
2022/12/07 08:25:28;;;;;;;;;40.75;33.50;;;;;3.75;77.16;101817.47;5060628;28;45426;-88
2022/12/07 08:27:54;;;;;;;;;44.75;38.00;;;;;3.76;76.70;101816.63;5064491;28;46194;-88
2022/12/07 08:30:20;;;;;;;;;42.25;37.25;;;;;3.71;76.95;101807.72;5042434;28;45398;-90
2022/12/07 08:32:47;;;;;;;;;40.50;35.00;;;;;3.80;76.82;101820.28;5043082;28;45269;-89
2022/12/07 08:35:28;;;;;;;;;63.00;51.25;;;;;3.78;76.81;101815.81;5048525;28;45355;-91
2022/12/07 08:37:57;;;;;;;;;43.00;37.75;;;;;3.91;76.96;101826.81;5064704;28;45398;-91
2022/12/07 08:40:26;;;;;;;;;44.00;35.00;;;;;3.82;76.58;101802.09;5051264;28;45301;-90
2022/12/07 08:43:07;;;;;;;;;36.50;32.25;;;;;4.00;76.65;101831.50;5047154;28;45481;-88
2022/12/07 08:45:36;;;;;;;;;43.00;38.00;;;;;4.00;76.89;101817.56;5041328;28;45288;-88
2022/12/07 08:48:10;;;;;;;;;44.00;32.75;;;;;3.98;77.25;101802.78;5043823;28;47512;-87
2022/12/07 08:50:37;;;;;;;;;41.75;34.00;;;;;4.22;76.69;101838.44;5063382;28;45414;-87
2022/12/07 08:53:05;;;;;;;;;38.50;31.25;;;;;4.18;76.61;101828.75;5056479;28;45429;-88
2022/12/07 08:55:32;;;;;;;;;40.75;34.75;;;;;4.29;76.46;101840.47;5043160;28;45461;-87
2022/12/07 08:58:03;;;;;;;;;44.00;39.25;;;;;4.29;76.58;101829.16;5047682;28;47292;-89
2022/12/07 09:00:32;;;;;;;;;45.50;38.25;;;;;4.29;76.74;101822.22;5069550;28;45350;-89
2022/12/07 09:03:03;;;;;;;;;47.50;37.75;;;;;4.18;76.58;101806.16;5048071;28;45258;-86
2022/12/07 09:05:33;;;;;;;;;44.75;37.75;;;;;4.36;76.37;101833.81;5062082;28;45334;-88
2022/12/07 09:08:05;;;;;;;;;50.50;40.75;;;;;4.30;76.57;101820.50;5049105;28;45527;-90
2022/12/07 09:10:36;;;;;;;;;44.00;40.25;;;;;4.37;76.58;101819.94;5048437;28;45436;-89
2022/12/07 09:13:02;;;;;;;;;39.50;35.75;;;;;4.46;76.46;101832.41;5051161;28;45346;-91
2022/12/07 09:15:29;;;;;;;;;41.25;37.75;;;;;4.36;76.59;101808.63;5039399;28;45456;-88
2022/12/07 09:17:54;;;;;;;;;47.25;38.50;;;;;4.50;76.17;101824.78;5042030;28;47330;-86
2022/12/07 09:20:19;;;;;;;;;39.00;37.25;;;;;4.53;76.09;101834.44;5054777;28;45429;-89
2022/12/07 09:22:45;;;;;;;;;52.25;41.00;;;;;4.48;76.12;101820.34;5052687;28;45284;-89
2022/12/07 09:25:10;;;;;;;;;45.50;39.25;;;;;4.42;76.26;101811.44;5076607;28;45448;-87
2022/12/07 09:27:39;;;;;;;;;41.75;37.25;;;;;4.55;75.86;101833.66;5054775;28;48091;-87
2022/12/07 09:30:20;;;;;;;;;;;;;;;;;;;;;
2022/12/07 09:32:46;;;;;;;;;42.50;37.25;;;;;4.42;75.82;101811.44;5066287;28;68153;-89
2022/12/07 09:35:21;;;;;;;;;42.50;36.50;;;;;4.60;76.45;101831.25;5058895;28;45313;-91
2022/12/07 09:37:52;;;;;;;;;43.25;38.00;;;;;4.55;75.87;101810.22;5044373;28;45745;-91
2022/12/07 09:40:36;;;;;;;;;40.00;35.25;;;;;4.47;76.00;101792.50;5063133;28;45385;-92
2022/12/07 09:43:07;;;;;;;;;40.00;36.00;;;;;4.69;76.37;101828.97;5092424;27;45499;-92
2022/12/07 09:45:36;;;;;;;;;47.00;38.25;;;;;4.66;76.31;101801.91;5044129;28;45763;-87
2022/12/07 09:48:04;;;;;;;;;38.25;34.00;;;;;4.79;76.00;101814.56;5040212;28;46318;-86
2022/12/07 09:50:30;;;;;;;;;45.00;38.00;;;;;4.85;76.04;101823.50;5050701;28;45679;-84
2022/12/07 09:53:32;;;;;;;;;37.50;34.75;;;;;4.75;75.68;101797.00;5041256;28;45478;-89
2022/12/07 09:56:02;;;;;;;;;41.25;36.25;;;;;4.77;76.05;101793.63;5053737;28;45441;-89
2022/12/07 09:58:32;;;;;;;;;42.00;37.25;;;;;4.79;75.82;101785.88;5045698;28;45716;-88
2022/12/07 10:01:42;;;;;;;;;42.25;37.00;;;;;5.08;75.86;101813.91;5078584;28;45481;-90
2022/12/07 10:04:35;;;;;;;;;41.00;36.25;;;;;5.04;76.00;101782.41;5054531;28;45455;-89
2022/12/07 10:07:29;;;;;;;;;36.00;30.25;;;;;5.23;75.56;101779.59;5060433;28;45364;-88
2022/12/07 10:10:06;;;;;;;;;44.00;37.75;;;;;5.47;75.57;101789.13;5052558;28;47056;-89
2022/12/07 10:12:58;;;;;;;;;35.75;30.75;;;;;5.66;75.39;101799.34;5043825;28;45349;-90
2022/12/07 10:15:42;;;;;;;;;41.00;37.25;;;;;5.72;74.83;101810.03;5096034;27;45341;-89
2022/12/07 10:18:21;;;;;;;;;45.00;38.25;;;;;5.75;74.61;101802.28;5045925;28;45506;-89
2022/12/07 10:20:52;;;;;;;;;39.75;36.50;;;;;5.83;74.52;101814.72;5033955;28;47141;-89
2022/12/07 10:23:23;;;;;;;;;49.50;39.50;;;;;5.70;74.40;101775.13;5042558;28;45446;-90
2022/12/07 10:25:59;;;;;;;;;43.50;35.25;;;;;5.86;74.43;101783.47;5057865;28;45813;-89
2022/12/07 10:29:05;;;;;;;;;39.25;35.25;;;;;6.03;74.27;101797.97;5044818;28;45426;-89
2022/12/07 10:31:46;;;;;;;;;37.00;35.25;;;;;6.07;74.24;101789.41;5073136;28;46282;-89
2022/12/07 10:34:49;;;;;;;;;44.00;37.50;;;;;6.23;74.34;101793.38;5084992;27;45405;-89
2022/12/07 10:37:29;;;;;;;;;42.75;32.75;;;;;6.42;74.15;101789.59;5045382;28;45471;-89
2022/12/07 10:39:59;;;;;;;;;47.25;38.25;;;;;6.52;73.74;101772.44;5080743;27;45761;-89
2022/12/07 10:42:31;;;;;;;;;48.50;40.00;;;;;6.73;73.59;101772.16;5081801;27;48103;-89
2022/12/07 10:45:30;;;;;;;;;21.25;19.50;;;;;6.84;73.15;101766.41;5063985;28;45445;-88
2022/12/07 10:48:14;;;;;;;;;43.75;37.75;;;;;7.03;73.00;101778.28;5042218;28;45341;-91
2022/12/07 10:51:05;;;;;;;;;42.25;38.25;;;;;7.11;72.82;101768.03;5063814;28;45893;-94
2022/12/07 10:53:42;;;;;;;;;46.25;38.00;;;;;7.20;72.40;101756.91;5037920;28;47190;-92
2022/12/07 10:57:18;;;;;;;;;43.75;36.75;;;;;7.29;72.20;101754.50;5086059;27;45472;-91
2022/12/07 11:04:08;;;;;;;;;48.00;38.75;;;;;8.61;72.70;101737.50;4994627;28;45711;-88
2022/12/07 11:07:35;;;;;;;;;42.50;37.25;;;;;10.15;71.65;101733.13;5029620;28;45430;-90
2022/12/07 11:10:13;;;;;;;;;46.00;38.50;;;;;10.62;69.23;101718.84;5035446;28;45449;-79
2022/12/07 11:12:44;;;;;;;;;45.50;38.50;;;;;11.20;68.29;101724.75;5060510;28;45403;-80
2022/12/07 11:15:48;;;;;;;;;44.25;37.00;;;;;11.11;66.26;101721.13;5060897;28;45493;-87
2022/12/07 11:18:21;;;;;;;;;45.25;37.00;;;;;10.82;65.02;101712.06;5068129;28;45380;-82
2022/12/07 11:21:14;;;;;;;;;41.00;34.00;;;;;10.62;65.27;101707.44;5054329;28;45368;-85
2022/12/07 11:24:03;;;;;;;;;41.50;35.00;;;;;10.47;65.29;101703.75;5032710;28;45225;-81
2022/12/07 11:27:18;;;;;;;;;31.25;29.75;;;;;10.45;65.37;101692.34;5058310;28;45339;-85
2022/12/07 11:29:53;;;;;;;;;42.25;37.00;;;;;10.87;65.77;101685.75;5055215;28;46956;-86
2022/12/07 11:33:14;;;;;;;;;;;;;;;;;;;;;
2022/12/07 11:35:59;;;;;;;;;36.50;34.25;;;;;13.68;64.19;101687.06;5051374;28;45517;-86
2022/12/07 11:39:21;;;;;;;;;33.00;29.50;;;;;15.03;61.02;101675.94;5053926;28;44786;-84
2022/12/07 11:42:15;;;;;;;;;39.50;34.00;;;;;16.28;59.52;101657.94;5064601;28;46962;-87
2022/12/07 11:45:25;;;;;;;;;39.25;33.00;;;;;17.72;57.04;101664.59;5050151;28;45337;-88
2022/12/07 11:48:07;;;;;;;;;35.75;31.25;;;;;18.75;54.80;101659.88;5075626;28;45191;-86
2022/12/07 11:50:50;;;;;;;;;32.75;31.50;;;;;19.50;53.16;101642.88;5054176;28;45593;-87
2022/12/07 11:53:18;;;;;;;;;36.75;32.50;;;;;20.30;51.48;101651.34;5072033;28;47391;-88
2022/12/07 11:56:03;;;;;;;;;39.25;31.25;;;;;20.83;49.97;101635.47;5048607;28;45486;-89
2022/12/07 11:59:34;;;;;;;;;35.50;31.25;;;;;21.41;48.52;101653.22;5055940;28;45303;-91
2022/12/07 12:03:04;;;;;;;;;37.25;31.75;;;;;21.52;46.71;101635.88;5002275;28;45447;-88
2022/12/07 12:08:57;;;;;;;;;;;;;;;;;;;;;
2022/12/07 12:12:04;;;;;;;;;32.50;30.25;;;;;18.30;45.85;101620.81;5069856;28;66917;-86
2022/12/07 12:18:29;;;;;;;;;;;;;;;;;;;;;
2022/12/07 12:21:05;;;;;;;;;28.25;27.50;;;;;16.63;47.54;101629.13;5063220;28;71169;-86
2022/12/07 12:23:42;;;;;;;;;29.75;27.75;;;;;16.36;48.01;101625.94;5069650;28;45310;-86
2022/12/07 12:26:20;;;;;;;;;37.00;32.75;;;;;16.02;48.35;101606.91;5052766;28;45418;-87
2022/12/07 12:29:17;;;;;;;;;32.50;30.25;;;;;15.75;48.42;101606.31;5090974;27;48273;-87
2022/12/07 12:31:44;;;;;;;;;27.50;27.50;;;;;15.50;48.91;101616.28;5056907;28;45298;-86
2022/12/07 12:34:45;;;;;;;;;29.50;28.50;;;;;15.32;48.99;101617.34;5048673;28;45344;-87
2022/12/07 12:37:32;;;;;;;;;32.50;28.75;;;;;15.12;48.98;101620.16;5056247;28;45537;-86
2022/12/07 12:40:23;;;;;;;;;30.00;29.50;;;;;14.90;49.42;101608.84;5041569;28;47060;-85